Time;durP1;ratioP1;P1;durP2;ratioP2;P2;SDS_P1;SDS_P2;PMS_P1;PMS_P2;Temp;Humidity;BMP_temperature;BMP_pressure;BME280_temperature;BME280_humidity;BME280_pressure;Samples;Min_cycle;Max_cycle;Signal;HPM_P1;HPM_P2
2022/09/20 00:00:04;;;;;;;19.15;3.10;;;9.20;99.90;;;;;;5048284;28;20029;-46
2022/09/20 00:02:30;;;;;;;16.10;3.17;;;9.20;99.90;;;;;;5040507;28;20045;-48
2022/09/20 00:04:55;;;;;;;19.40;4.25;;;9.20;99.90;;;;;;5048263;28;20414;-47
2022/09/20 00:07:21;;;;;;;13.73;3.13;;;9.10;99.90;;;;;;5049411;28;20037;-46
2022/09/20 00:09:46;;;;;;;10.30;3.08;;;9.10;99.90;;;;;;5048808;28;20429;-47
2022/09/20 00:12:11;;;;;;;9.07;2.88;;;9.10;99.90;;;;;;5049530;28;20029;-48
2022/09/20 00:14:37;;;;;;;14.60;3.10;;;9.10;99.90;;;;;;5049212;28;20112;-49
2022/09/20 00:17:02;;;;;;;15.48;3.08;;;9.10;99.90;;;;;;5049411;28;20498;-48
2022/09/20 00:19:28;;;;;;;10.20;3.90;;;9.10;99.90;;;;;;5049637;28;20075;-47
2022/09/20 00:21:53;;;;;;;13.27;3.65;;;9.00;99.90;;;;;;5048102;28;20025;-47
2022/09/20 00:24:19;;;;;;;13.13;3.15;;;9.00;99.90;;;;;;5048843;28;20044;-47
2022/09/20 00:26:45;;;;;;;9.15;3.25;;;9.00;99.90;;;;;;5048933;28;20533;-48
2022/09/20 00:29:12;;;;;;;11.48;4.25;;;9.00;99.90;;;;;;5049047;28;20041;-48
2022/09/20 00:31:39;;;;;;;14.55;3.83;;;9.00;99.90;;;;;;5042116;28;20022;-49
2022/09/20 00:36:48;;;;;;;15.85;3.88;;;9.00;99.90;;;;;;5049437;28;20441;-47
2022/09/20 00:39:15;;;;;;;12.82;4.18;;;9.00;99.90;;;;;;5049834;28;20105;-47
2022/09/20 00:41:40;;;;;;;19.02;3.85;;;9.10;99.90;;;;;;5047706;28;20024;-47
2022/09/20 00:44:41;;;;;;;12.73;4.20;;;9.10;99.90;;;;;;5048554;28;20029;-47
2022/09/20 00:47:11;;;;;;;;;;;9.00;99.90;;;;;;5048958;28;20117;-47
2022/09/20 00:49:37;;;;;;;14.70;4.78;;;9.10;99.90;;;;;;5048929;28;19951;-47
2022/09/20 00:52:03;;;;;;;13.63;4.43;;;9.10;99.90;;;;;;5047556;28;20029;-48
2022/09/20 00:54:30;;;;;;;13.77;4.10;;;9.10;99.90;;;;;;5048539;28;20033;-50
2022/09/20 00:56:56;;;;;;;16.38;4.20;;;9.20;99.90;;;;;;5049230;28;20027;-48
2022/09/20 00:59:26;;;;;;;19.70;4.47;;;9.20;99.90;;;;;;5048859;28;20493;-49
2022/09/20 01:01:56;;;;;;;12.05;4.00;;;9.20;99.90;;;;;;5040331;28;20117;-50
2022/09/20 01:04:24;;;;;;;9.55;3.55;;;9.20;99.90;;;;;;5040121;28;20032;-47
2022/09/20 01:06:53;;;;;;;12.85;3.60;;;9.30;99.90;;;;;;5048672;28;20124;-47
2022/09/20 01:09:18;;;;;;;15.65;4.45;;;9.30;99.90;;;;;;5047163;28;20091;-47
2022/09/20 01:11:45;;;;;;;13.35;3.95;;;9.30;99.90;;;;;;5048845;28;20475;-50
2022/09/20 01:14:14;;;;;;;16.17;4.00;;;9.30;99.90;;;;;;5047850;28;20032;-47
2022/09/20 01:16:39;;;;;;;8.80;3.20;;;9.30;99.90;;;;;;5048500;28;20563;-48
2022/09/20 01:19:21;;;;;;;12.02;3.83;;;9.40;99.90;;;;;;5048822;28;20033;-48
2022/09/20 01:21:47;;;;;;;9.40;3.80;;;9.40;99.90;;;;;;5048578;28;20025;-47
2022/09/20 01:24:39;;;;;;;11.57;3.55;;;9.40;99.90;;;;;;5047993;28;20021;-46
2022/09/20 01:27:13;;;;;;;13.65;3.55;;;9.40;99.90;;;;;;5045123;28;20506;-47
2022/09/20 01:29:57;;;;;;;18.30;4.45;;;9.40;99.90;;;;;;5048596;28;20067;-47
2022/09/20 01:32:27;;;;;;;12.55;3.72;;;9.40;99.90;;;;;;5038032;28;20017;-50
2022/09/20 01:34:56;;;;;;;12.75;3.75;;;9.40;99.90;;;;;;5043922;28;20021;-48
2022/09/20 01:37:43;;;;;;;17.40;3.40;;;9.40;99.90;;;;;;5048528;28;20078;-47
2022/09/20 01:40:50;;;;;;;8.35;3.30;;;9.40;99.90;;;;;;5052656;28;20022;-48
2022/09/20 01:43:58;;;;;;;8.15;3.40;;;9.40;99.90;;;;;;5052469;28;20029;-47
2022/09/20 01:46:33;;;;;;;14.77;3.08;;;9.50;99.90;;;;;;5041438;28;20601;-50
2022/09/20 01:49:11;;;;;;;14.90;3.75;;;9.50;99.90;;;;;;5052308;28;20032;-48
2022/09/20 01:51:55;;;;;;;16.25;3.92;;;9.50;99.90;;;;;;5052029;28;20024;-48
2022/09/20 01:54:58;;;;;;;18.08;4.10;;;9.50;99.90;;;;;;5050307;28;20479;-48
2022/09/20 01:57:51;;;;;;;13.77;4.32;;;9.50;99.90;;;;;;5052117;28;20112;-47
2022/09/20 02:00:33;;;;;;;17.60;4.40;;;9.50;99.90;;;;;;5049968;28;20095;-48
2022/09/20 02:03:19;;;;;;;17.55;5.63;;;9.50;99.90;;;;;;5040137;28;20041;-48
2022/09/20 02:05:49;;;;;;;14.40;5.72;;;9.50;99.90;;;;;;5012226;28;20042;-49
2022/09/20 02:08:35;;;;;;;20.40;6.10;;;9.60;99.90;;;;;;5012303;28;20580;-48
2022/09/20 02:11:11;;;;;;;14.90;5.95;;;9.60;99.90;;;;;;5010678;28;20480;-50
2022/09/20 02:13:39;;;;;;;17.85;6.40;;;9.60;99.90;;;;;;5011886;28;20021;-48
2022/09/20 02:16:05;;;;;;;21.77;6.90;;;9.70;99.90;;;;;;5011986;28;20216;-49
2022/09/20 02:19:06;;;;;;;22.23;7.38;;;9.70;99.90;;;;;;5012450;28;20076;-49
2022/09/20 02:22:05;;;;;;;22.05;8.45;;;9.70;99.90;;;;;;5010876;28;20018;-47
2022/09/20 02:24:57;;;;;;;23.52;8.32;;;9.70;99.90;;;;;;5011781;28;20025;-49
2022/09/20 02:27:44;;;;;;;28.88;8.88;;;9.70;99.90;;;;;;5014670;28;20030;-47
2022/09/20 02:30:21;;;;;;;29.10;8.57;;;9.70;99.90;;;;;;5022448;28;20036;-48
2022/09/20 02:33:16;;;;;;;31.55;9.38;;;9.70;99.90;;;;;;5025289;28;20088;-48
2022/09/20 02:35:54;;;;;;;22.33;8.90;;;9.70;99.90;;;;;;5028090;28;20021;-47
2022/09/20 02:38:51;;;;;;;30.23;10.18;;;9.70;99.90;;;;;;5020943;28;20033;-50
2022/09/20 02:41:43;;;;;;;31.73;9.82;;;9.70;99.90;;;;;;5020646;28;20479;-47
2022/09/20 02:44:27;;;;;;;21.70;9.88;;;9.70;99.90;;;;;;5010255;28;20022;-48
2022/09/20 02:47:16;;;;;;;33.88;10.55;;;9.70;99.90;;;;;;5009963;28;20545;-47
2022/09/20 02:50:03;;;;;;;25.30;10.13;;;9.70;99.90;;;;;;5020692;28;20029;-47
2022/09/20 02:52:43;;;;;;;36.25;11.25;;;9.70;99.90;;;;;;5024535;28;20455;-49
2022/09/20 02:55:27;;;;;;;23.00;10.18;;;9.60;99.90;;;;;;5031231;28;20026;-51
2022/09/20 02:58:16;;;;;;;26.15;11.10;;;9.60;99.90;;;;;;5031504;28;20091;-50
2022/09/20 03:00:52;;;;;;;28.83;11.57;;;9.60;99.90;;;;;;5030252;28;20105;-50
2022/09/20 03:03:26;;;;;;;34.15;11.73;;;9.60;99.90;;;;;;5040993;28;20025;-48
2022/09/20 03:06:07;;;;;;;31.65;12.68;;;9.60;99.90;;;;;;5010987;28;20033;-50
2022/09/20 03:09:17;;;;;;;24.88;11.27;;;9.60;99.90;;;;;;5011422;28;20026;-48
2022/09/20 03:11:48;;;;;;;34.00;11.80;;;9.60;99.90;;;;;;5011039;28;20088;-49
2022/09/20 03:14:25;;;;;;;28.42;12.40;;;9.60;99.90;;;;;;5011392;28;20391;-50
2022/09/20 03:17:41;;;;;;;24.48;11.63;;;9.60;99.90;;;;;;5019322;28;20573;-49
2022/09/20 03:20:25;;;;;;;33.28;12.50;;;9.60;99.90;;;;;;5021078;28;20022;-50
2022/09/20 03:23:09;;;;;;;34.47;12.30;;;9.60;99.90;;;;;;5010402;28;20432;-47
2022/09/20 03:25:48;;;;;;;34.78;11.70;;;9.60;99.90;;;;;;5010978;28;20087;-50
2022/09/20 03:28:37;;;;;;;27.52;12.55;;;9.60;99.90;;;;;;5010917;28;20075;-50
2022/09/20 03:31:20;;;;;;;28.02;11.38;;;9.60;99.90;;;;;;5018036;28;20124;-47
2022/09/20 03:34:10;;;;;;;31.05;13.98;;;9.50;99.90;;;;;;5041263;28;20394;-49
2022/09/20 03:36:44;;;;;;;40.13;15.57;;;9.40;99.90;;;;;;5049327;28;20021;-49
2022/09/20 03:39:38;;;;;;;25.45;11.90;;;9.50;99.90;;;;;;5050171;28;20087;-46
2022/09/20 03:42:12;;;;;;;30.73;12.35;;;9.50;99.90;;;;;;5049996;28;20100;-49
2022/09/20 03:45:04;;;;;;;36.15;13.13;;;9.50;99.90;;;;;;5049428;28;20076;-48
2022/09/20 03:47:55;;;;;;;34.20;13.65;;;9.50;99.90;;;;;;5049991;28;20017;-49
2022/09/20 03:50:33;;;;;;;38.33;12.77;;;9.50;99.90;;;;;;5049736;28;20021;-47
2022/09/20 03:53:02;;;;;;;35.15;12.85;;;9.50;99.90;;;;;;5048263;28;20029;-49
2022/09/20 03:55:36;;;;;;;25.77;11.90;;;9.50;99.90;;;;;;5049938;28;20036;-46
2022/09/20 03:58:12;;;;;;;29.15;12.32;;;9.50;99.90;;;;;;5050022;28;20049;-46
2022/09/20 04:01:03;;;;;;;28.02;13.27;;;9.50;99.90;;;;;;5045319;28;20121;-48
2022/09/20 04:03:48;;;;;;;28.70;11.82;;;9.50;99.90;;;;;;5029867;28;20419;-50
2022/09/20 04:06:41;;;;;;;33.65;12.88;;;9.50;99.90;;;;;;5029967;28;20050;-47
2022/09/20 04:09:25;;;;;;;30.27;12.70;;;9.50;99.90;;;;;;5029540;28;20229;-48
2022/09/20 04:12:21;;;;;;;31.52;13.05;;;9.50;99.90;;;;;;5029540;28;20030;-47
2022/09/20 04:14:57;;;;;;;27.05;12.13;;;9.50;99.90;;;;;;5029309;28;20115;-48
2022/09/20 04:17:49;;;;;;;35.00;12.57;;;9.50;99.90;;;;;;5029045;28;20048;-47
2022/09/20 04:20:43;;;;;;;30.65;12.43;;;9.50;99.90;;;;;;5029286;28;20026;-49
2022/09/20 04:23:36;;;;;;;31.45;14.50;;;9.40;99.90;;;;;;5028759;28;20022;-48
2022/09/20 04:26:02;;;;;;;28.63;12.18;;;9.40;99.90;;;;;;5029151;28;20033;-47
2022/09/20 04:28:47;;;;;;;31.67;14.65;;;9.40;99.90;;;;;;5029126;28;20386;-47
2022/09/20 04:31:39;;;;;;;29.45;12.93;;;9.40;99.90;;;;;;5030852;28;20026;-48
2022/09/20 04:34:15;;;;;;;24.88;12.38;;;9.40;99.90;;;;;;5038584;28;20033;-46
2022/09/20 04:37:02;;;;;;;37.97;12.75;;;9.40;99.90;;;;;;5048733;28;20443;-47
2022/09/20 04:39:54;;;;;;;29.60;12.77;;;9.40;99.90;;;;;;5048815;28;20025;-47
2022/09/20 04:43:06;;;;;;;24.75;11.40;;;9.50;99.90;;;;;;5047157;28;20028;-46
2022/09/20 04:45:52;;;;;;;26.83;11.18;;;9.50;99.90;;;;;;5048455;28;20108;-46
2022/09/20 04:48:56;;;;;;;21.33;10.80;;;9.40;99.90;;;;;;5047283;28;20025;-46
2022/09/20 04:51:46;;;;;;;23.42;10.52;;;9.40;99.90;;;;;;5048860;28;20482;-46
2022/09/20 04:54:50;;;;;;;27.63;11.30;;;9.40;99.90;;;;;;5048565;28;20158;-47
2022/09/20 04:57:52;;;;;;;27.33;11.38;;;9.40;99.90;;;;;;5048740;28;20082;-48
2022/09/20 05:00:20;;;;;;;26.17;12.07;;;9.40;99.90;;;;;;5047413;28;20017;-47
2022/09/20 05:03:17;;;;;;;20.70;11.75;;;9.40;99.90;;;;;;5035753;28;20017;-49
2022/09/20 05:05:55;;;;;;;29.63;12.63;;;9.40;99.90;;;;;;5009097;28;20484;-48
2022/09/20 05:08:49;;;;;;;34.33;14.40;;;9.40;99.90;;;;;;5009045;28;20034;-47
2022/09/20 05:11:29;;;;;;;29.17;11.82;;;9.40;99.90;;;;;;5008788;28;20030;-47
2022/09/20 05:14:27;;;;;;;21.85;10.70;;;9.40;99.90;;;;;;5016007;28;20422;-46
2022/09/20 05:17:09;;;;;;;30.90;13.20;;;9.50;99.90;;;;;;5020355;28;20041;-46
2022/09/20 05:20:07;;;;;;;22.48;11.07;;;9.40;99.90;;;;;;5028143;28;20444;-47
2022/09/20 05:22:38;;;;;;;31.90;12.13;;;9.40;99.90;;;;;;5008066;28;20534;-47
2022/09/20 05:25:38;;;;;;;30.27;12.95;;;9.50;99.90;;;;;;5028493;28;20076;-48
2022/09/20 05:28:14;;;;;;;33.70;11.40;;;9.50;99.90;;;;;;5027091;28;20026;-47
2022/09/20 05:30:49;;;;;;;27.17;11.40;;;9.50;99.90;;;;;;5028214;28;20033;-49
2022/09/20 05:33:43;;;;;;;26.75;11.75;;;9.50;99.90;;;;;;5036701;28;20148;-49
2022/09/20 05:36:42;;;;;;;42.58;14.35;;;9.50;99.90;;;;;;5048645;28;20104;-49
2022/09/20 05:39:32;;;;;;;25.45;10.57;;;9.50;99.90;;;;;;5018560;28;20513;-48
2022/09/20 05:42:08;;;;;;;22.23;10.15;;;9.50;99.90;;;;;;5013901;28;20085;-50
2022/09/20 05:45:07;;;;;;;25.67;12.65;;;9.50;99.90;;;;;;5008452;28;20030;-50
2022/09/20 05:47:59;;;;;;;27.02;11.63;;;9.60;99.90;;;;;;5008298;28;20535;-50
2022/09/20 05:50:43;;;;;;;77.43;36.22;;;9.60;99.90;;;;;;5008930;28;20033;-50
2022/09/20 05:53:32;;;;;;;41.13;18.08;;;9.60;99.90;;;;;;5006819;28;20100;-49
2022/09/20 05:56:26;;;;;;;29.85;11.65;;;9.70;99.90;;;;;;5006973;28;20538;-48
2022/09/20 05:59:19;;;;;;;31.55;12.20;;;9.70;99.90;;;;;;5007034;28;20026;-50
2022/09/20 06:02:09;;;;;;;30.95;12.93;;;9.70;99.90;;;;;;5023112;28;20013;-51
2022/09/20 06:04:51;;;;;;;23.35;11.90;;;9.80;99.90;;;;;;5031224;28;20510;-49
2022/09/20 06:07:54;;;;;;;32.63;11.95;;;9.70;99.90;;;;;;5023075;28;20037;-48
2022/09/20 06:10:42;;;;;;;26.48;11.45;;;9.70;99.90;;;;;;5024782;28;20048;-50
2022/09/20 06:13:41;;;;;;;21.35;10.32;;;9.70;99.90;;;;;;5027591;28;20009;-49
2022/09/20 06:16:13;;;;;;;21.65;10.13;;;9.80;99.90;;;;;;5027161;28;20310;-50
2022/09/20 06:18:58;;;;;;;20.83;11.20;;;9.70;99.90;;;;;;5027506;28;20033;-47
2022/09/20 06:21:37;;;;;;;26.95;12.25;;;9.70;99.90;;;;;;5025185;28;20453;-47
2022/09/20 06:24:09;;;;;;;26.13;11.68;;;9.80;99.90;;;;;;5025943;28;20037;-50
2022/09/20 06:26:36;;;;;;;27.83;10.68;;;9.80;99.90;;;;;;5031418;28;20703;-50
2022/09/20 06:29:04;;;;;;;23.65;10.02;;;9.80;99.90;;;;;;5031244;28;20188;-48
2022/09/20 06:31:30;;;;;;;19.65;9.35;;;9.80;99.90;;;;;;5033347;28;20052;-47
2022/09/20 06:34:10;;;;;;;24.45;8.75;;;9.80;99.90;;;;;;5041871;28;20021;-47
2022/09/20 06:42:53;;;;;;;19.58;8.50;;;9.90;99.90;;;;;;5038008;28;20502;-49
2022/09/20 06:45:19;;;;;;;17.83;8.18;;;10.00;99.90;;;;;;5049555;28;20112;-49
2022/09/20 06:47:44;;;;;;;17.25;9.25;;;10.00;99.90;;;;;;5050305;28;20637;-50
2022/09/20 06:50:17;;;;;;;62.63;32.92;;;10.10;99.90;;;;;;5049011;28;20029;-50
2022/09/20 06:52:44;;;;;;;19.27;9.30;;;10.10;99.90;;;;;;5050098;28;20060;-48
2022/09/20 06:55:20;;;;;;;15.85;8.23;;;10.20;99.90;;;;;;5050398;28;20086;-50
2022/09/20 06:57:45;;;;;;;17.45;7.65;;;10.20;99.90;;;;;;5050578;28;20029;-48
2022/09/20 07:00:14;;;;;;;12.68;7.32;;;10.20;99.90;;;;;;5050457;28;20076;-47
2022/09/20 07:02:41;;;;;;;13.85;7.63;;;10.10;99.90;;;;;;5038760;28;20013;-49
2022/09/20 07:05:14;;;;;;;12.68;6.97;;;10.10;99.90;;;;;;5046506;28;20031;-49
2022/09/20 07:07:40;;;;;;;15.07;8.10;;;10.10;99.90;;;;;;5049142;28;20075;-50
2022/09/20 07:10:05;;;;;;;14.45;7.40;;;10.10;99.90;;;;;;5037836;28;20574;-51
2022/09/20 07:12:32;;;;;;;10.68;6.53;;;10.20;99.90;;;;;;5030331;28;20057;-49
2022/09/20 07:14:58;;;;;;;16.80;7.72;;;10.20;99.90;;;;;;5029679;28;20033;-50
2022/09/20 07:17:24;;;;;;;14.80;8.02;;;10.20;99.90;;;;;;5029407;28;20105;-51
2022/09/20 07:19:50;;;;;;;13.57;7.68;;;10.20;99.90;;;;;;5029589;28;20033;-50
2022/09/20 07:22:15;;;;;;;13.77;8.02;;;10.20;99.90;;;;;;5029658;28;20021;-50
2022/09/20 07:24:43;;;;;;;15.20;7.13;;;10.20;99.90;;;;;;5028058;28;20503;-51
2022/09/20 07:27:10;;;;;;;12.90;7.38;;;10.30;99.90;;;;;;5027726;28;20104;-48
2022/09/20 07:29:36;;;;;;;14.05;7.63;;;10.20;99.90;;;;;;5029198;28;20033;-51
2022/09/20 07:32:01;;;;;;;12.80;6.78;;;10.30;99.90;;;;;;5036652;28;20017;-48
2022/09/20 07:34:28;;;;;;;10.82;7.28;;;10.30;99.90;;;;;;5040722;28;20433;-51
2022/09/20 07:36:56;;;;;;;12.38;7.13;;;10.40;99.90;;;;;;5047938;28;20024;-51
2022/09/20 07:39:21;;;;;;;10.93;6.70;;;10.50;99.90;;;;;;5048913;28;20241;-49
2022/09/20 07:41:50;;;;;;;13.32;7.22;;;10.60;99.90;;;;;;5048865;28;20021;-51
2022/09/20 07:44:23;;;;;;;14.45;7.43;;;10.60;99.90;;;;;;5047039;28;20375;-50
2022/09/20 07:46:59;;;;;;;12.65;7.80;;;10.60;99.90;;;;;;5048585;28;20071;-50
2022/09/20 07:49:29;;;;;;;10.93;7.03;;;10.70;99.90;;;;;;5048685;28;20402;-50
2022/09/20 07:51:55;;;;;;;10.65;6.35;;;10.70;99.90;;;;;;5048877;28;20553;-50
2022/09/20 07:54:20;;;;;;;13.50;6.53;;;10.80;99.90;;;;;;5047963;28;20514;-49
2022/09/20 07:56:46;;;;;;;17.38;10.68;;;10.80;99.90;;;;;;5049566;28;20036;-51
2022/09/20 07:59:12;;;;;;;24.52;14.45;;;10.70;99.90;;;;;;5049940;28;20025;-50
2022/09/20 08:01:39;;;;;;;14.52;8.90;;;10.80;99.90;;;;;;5045640;28;20025;-51
2022/09/20 08:04:05;;;;;;;14.77;7.40;;;10.90;99.90;;;;;;5041089;28;20017;-51
2022/09/20 08:06:31;;;;;;;16.98;8.02;;;11.00;99.90;;;;;;5032660;28;20030;-49
2022/09/20 08:08:57;;;;;;;13.05;7.32;;;11.10;99.90;;;;;;5026312;28;20479;-50
2022/09/20 08:11:24;;;;;;;11.82;6.65;;;11.20;99.90;;;;;;5029200;28;20222;-49
2022/09/20 08:13:51;;;;;;;16.50;8.82;;;11.30;99.90;;;;;;5028596;28;20479;-51
2022/09/20 08:16:18;;;;;;;12.43;6.85;;;11.20;99.90;;;;;;5028619;28;20029;-51
2022/09/20 08:18:45;;;;;;;12.15;7.18;;;11.30;99.90;;;;;;5028895;28;20450;-50
2022/09/20 08:21:11;;;;;;;11.45;6.78;;;11.30;99.90;;;;;;5029300;28;20025;-51
2022/09/20 08:23:42;;;;;;;13.60;8.23;;;11.40;99.90;;;;;;5028806;28;20033;-50
2022/09/20 08:26:11;;;;;;;11.38;7.35;;;11.40;99.90;;;;;;5029064;28;20029;-49
2022/09/20 08:28:38;;;;;;;13.48;8.57;;;11.40;99.90;;;;;;5029043;28;20399;-50
2022/09/20 08:31:18;;;;;;;13.02;8.45;;;11.40;99.90;;;;;;5028251;28;20147;-50
2022/09/20 08:33:44;;;;;;;12.43;7.88;;;11.40;99.90;;;;;;5040007;28;20054;-50
2022/09/20 08:36:23;;;;;;;13.32;7.97;;;11.40;99.90;;;;;;5047910;28;20044;-50
2022/09/20 08:38:49;;;;;;;14.82;7.75;;;11.40;99.90;;;;;;5048328;28;20092;-51
2022/09/20 08:41:19;;;;;;;13.93;7.80;;;11.50;99.90;;;;;;5047173;28;20084;-50
2022/09/20 08:43:55;;;;;;;13.80;8.43;;;11.50;99.90;;;;;;5047987;28;20031;-50
2022/09/20 08:46:28;;;;;;;12.20;7.40;;;11.60;99.90;;;;;;5048067;28;20025;-50
2022/09/20 08:48:54;;;;;;;14.45;8.95;;;11.70;99.90;;;;;;5047735;28;20025;-49
2022/09/20 08:51:22;;;;;;;16.63;9.00;;;11.60;99.90;;;;;;5048255;28;20457;-50
2022/09/20 08:53:51;;;;;;;20.17;9.73;;;11.70;99.90;;;;;;5047914;28;20032;-51
2022/09/20 08:56:17;;;;;;;15.25;8.50;;;11.60;99.90;;;;;;5046989;28;20052;-48
2022/09/20 08:58:44;;;;;;;14.38;8.18;;;11.70;99.90;;;;;;5047067;28;20025;-51
2022/09/20 09:01:20;;;;;;;14.43;9.35;;;11.80;99.90;;;;;;5041227;28;20052;-52
2022/09/20 09:03:49;;;;;;;14.25;8.52;;;11.80;99.90;;;;;;5039202;28;20016;-51
2022/09/20 09:06:19;;;;;;;14.57;9.05;;;11.90;99.90;;;;;;5048202;28;20451;-52
2022/09/20 09:08:46;;;;;;;23.02;9.07;;;12.00;99.90;;;;;;5032887;28;20475;-51
2022/09/20 09:11:15;;;;;;;12.75;8.82;;;12.20;99.90;;;;;;5027705;28;20041;-50
2022/09/20 09:13:52;;;;;;;16.60;9.30;;;12.10;99.90;;;;;;5027943;28;20025;-51
2022/09/20 09:16:22;;;;;;;15.00;9.50;;;12.40;99.90;;;;;;5027579;28;20071;-49
2022/09/20 09:18:48;;;;;;;15.80;8.98;;;12.50;99.90;;;;;;5027968;28;20034;-49
2022/09/20 09:21:26;;;;;;;20.00;10.82;;;12.50;99.90;;;;;;5028018;28;20483;-50
2022/09/20 09:24:03;;;;;;;16.27;9.93;;;12.60;99.90;;;;;;5033374;28;20033;-51
2022/09/20 09:26:38;;;;;;;15.23;7.90;;;12.60;99.90;;;;;;5032592;28;20052;-52
2022/09/20 09:29:23;;;;;;;13.02;7.63;;;12.50;99.90;;;;;;5047758;28;20475;-50
2022/09/20 09:31:53;;;;;;;13.15;8.25;;;12.70;99.90;;;;;;5048001;28;20427;-51
2022/09/20 09:34:27;;;;;;;11.35;7.40;;;12.80;99.90;;;;;;5047422;28;20025;-51
2022/09/20 09:36:54;;;;;;;12.45;7.75;;;12.90;99.90;;;;;;5047737;28;20502;-51
2022/09/20 09:39:36;;;;;;;10.82;7.70;;;12.80;99.90;;;;;;5047423;28;20387;-51
2022/09/20 09:42:19;;;;;;;10.55;7.60;;;12.80;99.90;;;;;;5046241;28;20499;-51
2022/09/20 09:44:49;;;;;;;10.85;7.32;;;12.80;99.90;;;;;;5047535;28;20033;-50
2022/09/20 09:47:27;;;;;;;12.57;7.65;;;12.80;99.90;;;;;;5047548;28;20022;-51
2022/09/20 09:49:58;;;;;;;13.07;8.20;;;12.90;99.90;;;;;;5047568;28;20048;-50
2022/09/20 09:52:26;;;;;;;11.80;7.35;;;12.90;99.90;;;;;;5045614;28;20028;-49
2022/09/20 09:54:58;;;;;;;13.05;8.35;;;12.80;99.90;;;;;;5028284;28;20020;-51
2022/09/20 09:57:37;;;;;;;12.45;8.10;;;12.80;99.90;;;;;;5026877;28;20383;-49
2022/09/20 10:00:20;;;;;;;12.38;7.10;;;12.80;99.90;;;;;;5029546;28;20026;-49
2022/09/20 10:02:51;;;;;;;15.52;9.25;;;12.90;99.90;;;;;;5038694;28;20350;-48
2022/09/20 10:05:26;;;;;;;14.18;8.93;;;12.90;99.90;;;;;;5050515;28;20386;-52
2022/09/20 10:08:26;;;;;;;12.27;8.23;;;12.80;99.90;;;;;;5051721;28;20029;-51
2022/09/20 10:11:06;;;;;;;14.83;9.20;;;12.80;99.90;;;;;;5026538;28;20032;-51
2022/09/20 10:13:50;;;;;;;13.90;7.70;;;13.20;99.90;;;;;;5023973;28;20466;-50
2022/09/20 10:16:58;;;;;;;11.18;6.88;;;14.20;99.90;;;;;;5011525;28;20033;-52
2022/09/20 10:19:44;;;;;;;8.60;5.25;;;15.10;99.90;;;;;;5010011;28;20067;-51
2022/09/20 10:22:27;;;;;;;7.32;5.47;;;15.90;99.90;;;;;;5011143;28;20025;-52
2022/09/20 10:25:32;;;;;;;7.50;4.53;;;16.70;99.90;;;;;;5014073;28;20037;-52
2022/09/20 10:28:26;;;;;;;9.25;4.55;;;17.00;99.90;;;;;;5011578;28;20049;-50
2022/09/20 10:31:15;;;;;;;4.28;3.03;;;18.30;99.90;;;;;;5011342;28;20018;-50
2022/09/20 10:34:02;;;;;;;5.95;4.03;;;20.40;99.90;;;;;;5024618;28;20018;-51
2022/09/20 10:36:58;;;;;;;3.63;3.22;;;21.80;96.20;;;;;;5011510;28;20034;-50
2022/09/20 10:39:35;;;;;;;3.83;2.90;;;22.20;94.70;;;;;;5009975;28;20077;-51
2022/09/20 10:45:49;;;;;;;5.10;1.90;;;24.40;86.40;;;;;;5010303;28;20056;-53
2022/09/20 10:48:31;;;;;;;3.10;2.03;;;25.60;83.00;;;;;;5017965;28;20037;-53
2022/09/20 10:51:02;;;;;;;2.65;1.88;;;26.20;73.50;;;;;;5030826;28;20026;-53
2022/09/20 10:53:49;;;;;;;2.55;2.00;;;26.60;75.60;;;;;;5030336;28;20032;-53
2022/09/20 10:56:36;;;;;;;3.15;2.20;;;27.00;71.80;;;;;;5030314;28;20064;-53
2022/09/20 10:59:10;;;;;;;3.45;2.08;;;27.30;68.60;;;;;;5030100;28;20017;-53
2022/09/20 11:02:01;;;;;;;2.30;1.83;;;27.00;69.10;;;;;;5030198;28;20380;-53
2022/09/20 11:04:36;;;;;;;2.85;2.15;;;26.60;67.50;;;;;;5029626;28;20848;-52
2022/09/20 11:07:18;;;;;;;3.63;2.00;;;25.50;70.80;;;;;;5031229;28;20029;-52
2022/09/20 11:09:58;;;;;;;2.28;1.90;;;24.90;70.10;;;;;;5030482;28;20022;-53
2022/09/20 11:12:31;;;;;;;;;;;25.30;72.90;;;;;;5030792;28;20451;-53
2022/09/20 11:15:03;;;;;;;4.82;1.80;;;25.80;71.90;;;;;;5030812;28;19913;-53
2022/09/20 11:17:35;;;;;;;2.35;2.00;;;26.50;70.00;;;;;;5029412;28;20017;-52
2022/09/20 11:20:18;;;;;;;2.17;1.50;;;25.90;64.10;;;;;;5025313;28;20061;-51
2022/09/20 11:22:54;;;;;;;3.65;1.60;;;25.80;69.10;;;;;;5033896;28;20022;-53
2022/09/20 11:25:35;;;;;;;1.55;1.45;;;26.50;68.10;;;;;;5028757;28;20517;-52
2022/09/20 11:28:12;;;;;;;2.10;1.60;;;27.10;66.20;;;;;;5029723;28;20412;-53
2022/09/20 11:30:48;;;;;;;3.50;1.60;;;26.90;65.20;;;;;;5030308;28;20357;-53
2022/09/20 11:33:36;;;;;;;2.17;1.30;;;27.10;65.40;;;;;;5029033;28;20036;-52
2022/09/20 11:36:07;;;;;;;2.97;1.42;;;27.50;65.00;;;;;;5029857;28;20033;-52
2022/09/20 11:38:47;;;;;;;3.13;1.20;;;27.00;65.40;;;;;;5030303;28;20222;-52
2022/09/20 11:41:19;;;;;;;1.90;1.20;;;27.40;66.90;;;;;;5030069;28;20025;-52
2022/09/20 11:43:46;;;;;;;2.53;1.50;;;27.40;63.40;;;;;;5029626;28;20117;-53
2022/09/20 11:46:26;;;;;;;1.98;1.08;;;27.30;64.20;;;;;;5029828;28;20030;-52
2022/09/20 11:49:27;;;;;;;;;;;27.60;62.80;;;;;;5029907;28;20028;-52
2022/09/20 11:52:02;;;;;;;4.68;1.27;;;27.40;63.00;;;;;;5035066;28;19955;-51
2022/09/20 11:54:55;;;;;;;1.67;1.10;;;26.70;60.00;;;;;;5012128;28;20121;-51
2022/09/20 11:57:22;;;;;;;2.75;1.20;;;26.20;63.10;;;;;;5009898;28;20026;-52
2022/09/20 11:59:53;;;;;;;1.38;1.10;;;26.70;63.00;;;;;;5009875;28;20029;-52
2022/09/20 12:02:25;;;;;;;3.17;1.05;;;27.00;61.30;;;;;;5018779;28;20021;-52
2022/09/20 12:04:52;;;;;;;2.17;0.90;;;26.70;62.90;;;;;;5040442;28;20091;-52
2022/09/20 12:07:40;;;;;;;2.08;1.02;;;26.80;62.40;;;;;;5049324;28;20439;-51
2022/09/20 12:10:21;;;;;;;1.67;1.20;;;27.10;60.80;;;;;;5049120;28;20448;-51
2022/09/20 12:12:49;;;;;;;2.20;1.15;;;25.70;60.40;;;;;;5048492;28;20021;-51
2022/09/20 12:15:34;;;;;;;1.85;0.88;;;25.00;61.50;;;;;;5048918;28;20033;-51
2022/09/20 12:18:27;;;;;;;1.10;0.80;;;24.80;64.30;;;;;;5048868;28;20012;-51
2022/09/20 12:21:00;;;;;;;1.70;0.70;;;23.90;64.70;;;;;;5033856;28;20029;-48
2022/09/20 12:23:39;;;;;;;2.63;1.10;;;23.90;65.20;;;;;;5031345;28;20505;-51
2022/09/20 12:26:24;;;;;;;2.60;1.10;;;23.80;64.40;;;;;;5048938;28;20074;-51
2022/09/20 12:28:51;;;;;;;3.53;0.98;;;24.00;67.00;;;;;;5043587;28;20025;-51
2022/09/20 12:31:29;;;;;;;1.85;0.77;;;24.00;67.10;;;;;;5048344;28;20532;-48
2022/09/20 12:33:55;;;;;;;1.45;1.02;;;23.60;67.90;;;;;;5031899;28;20342;-51
2022/09/20 12:36:21;;;;;;;4.07;1.23;;;23.20;68.00;;;;;;5046901;28;20036;-48
2022/09/20 12:38:51;;;;;;;0.73;0.70;;;23.10;71.20;;;;;;5047678;28;20494;-49
2022/09/20 12:41:19;;;;;;;2.72;0.80;;;22.60;63.60;;;;;;5047264;28;20063;-48
2022/09/20 12:44:00;;;;;;;1.88;0.82;;;21.90;70.40;;;;;;5047336;28;20126;-49
2022/09/20 12:46:30;;;;;;;0.90;0.57;;;20.80;68.60;;;;;;5048443;28;20036;-50
2022/09/20 12:54:53;;;;;;;1.25;0.70;;;19.90;76.90;;;;;;5048675;28;20043;-48
2022/09/20 12:57:34;;;;;;;1.05;0.90;;;19.30;69.70;;;;;;5048671;28;20017;-48
2022/09/20 13:00:03;;;;;;;1.33;1.00;;;19.00;72.70;;;;;;5048143;28;20021;-48
2022/09/20 13:02:51;;;;;;;1.20;0.98;;;18.80;76.10;;;;;;5039850;28;20021;-48
2022/09/20 13:05:35;;;;;;;1.50;0.98;;;18.80;77.50;;;;;;5040652;28;20087;-47
2022/09/20 13:08:41;;;;;;;1.38;0.80;;;18.70;77.90;;;;;;5047294;28;20482;-47
2022/09/20 13:11:13;;;;;;;2.60;0.73;;;18.30;82.90;;;;;;5033568;28;20044;-47
2022/09/20 13:13:42;;;;;;;1.08;0.70;;;17.90;85.80;;;;;;5047077;28;20529;-46
2022/09/20 13:16:29;;;;;;;1.73;0.80;;;17.80;86.50;;;;;;5047233;28;20029;-49
2022/09/20 13:19:17;;;;;;;0.70;0.63;;;17.60;83.60;;;;;;5048456;28;20496;-50
2022/09/20 13:21:59;;;;;;;1.25;0.60;;;17.50;84.70;;;;;;5047188;28;20021;-50
2022/09/20 13:24:29;;;;;;;4.95;0.95;;;17.40;83.70;;;;;;5047238;28;20035;-50
2022/09/20 13:27:02;;;;;;;1.75;0.75;;;17.30;84.30;;;;;;5048635;28;20371;-49
2022/09/20 13:29:36;;;;;;;3.15;0.80;;;17.00;84.30;;;;;;5048366;28;20026;-49
2022/09/20 13:32:25;;;;;;;4.30;1.02;;;16.70;86.50;;;;;;5041575;28;20056;-49
2022/09/20 13:35:08;;;;;;;1.98;1.10;;;16.60;85.90;;;;;;5026144;28;20025;-49
2022/09/20 13:37:44;;;;;;;1.52;0.68;;;16.40;85.90;;;;;;5032156;28;20022;-49
2022/09/20 13:40:18;;;;;;;1.52;0.77;;;16.00;88.30;;;;;;5031898;28;20013;-52
2022/09/20 13:42:45;;;;;;;0.80;0.52;;;15.60;90.30;;;;;;5031530;28;20022;-49
2022/09/20 13:45:13;;;;;;;1.58;0.60;;;15.30;91.60;;;;;;5032110;28;20122;-52
2022/09/20 13:47:42;;;;;;;1.25;0.60;;;15.00;91.90;;;;;;5031619;28;20394;-48
2022/09/20 13:50:26;;;;;;;1.63;0.50;;;15.00;92.00;;;;;;5038484;28;20027;-49
2022/09/20 13:52:55;;;;;;;1.15;0.60;;;14.80;92.50;;;;;;5046852;28;20051;-51
2022/09/20 13:55:34;;;;;;;1.50;0.70;;;14.80;92.10;;;;;;5050079;28;20501;-50